createdAt,value
2019-02-06T00:01:58.771Z,4.70
2019-02-06T00:04:24.950Z,4.70
2019-02-06T00:06:51.087Z,4.70
2019-02-06T00:09:17.228Z,4.70
2019-02-06T00:11:43.359Z,4.70
2019-02-06T00:14:09.711Z,4.70
2019-02-06T00:16:35.952Z,4.70
2019-02-06T00:19:02.282Z,4.60
2019-02-06T00:21:28.432Z,4.60
2019-02-06T00:23:57.482Z,4.60
2019-02-06T00:26:23.706Z,4.50
2019-02-06T00:28:49.849Z,4.50
2019-02-06T00:31:15.981Z,4.50
2019-02-06T00:33:42.107Z,4.50
2019-02-06T00:36:23.630Z,4.50
2019-02-06T00:38:50.066Z,4.40
2019-02-06T00:41:25.462Z,4.40
2019-02-06T00:43:51.607Z,4.40
2019-02-06T00:46:20.513Z,4.40
2019-02-06T00:48:46.658Z,4.30
2019-02-06T00:51:12.781Z,4.20
2019-02-06T00:53:38.934Z,4.20
2019-02-06T00:56:05.432Z,4.20
2019-02-06T00:58:31.559Z,4.10
2019-02-06T01:00:57.870Z,4.10
2019-02-06T01:03:24.112Z,4.10
2019-02-06T01:05:50.346Z,4.00
2019-02-06T01:08:16.735Z,4.00
2019-02-06T01:10:42.919Z,4.00
2019-02-06T01:13:09.191Z,4.00
2019-02-06T01:15:35.686Z,4.00
2019-02-06T01:18:02.213Z,4.00
2019-02-06T01:20:28.337Z,4.00
2019-02-06T01:22:54.491Z,4.00
2019-02-06T01:25:20.679Z,4.00
2019-02-06T01:27:46.816Z,4.00
2019-02-06T01:30:15.037Z,4.00
2019-02-06T01:32:41.159Z,4.00
2019-02-06T01:35:11.016Z,4.00
2019-02-06T01:37:37.251Z,4.00
2019-02-06T01:40:05.282Z,3.90
2019-02-06T01:42:31.589Z,3.90
2019-02-06T01:45:00.575Z,3.90
2019-02-06T01:47:26.708Z,3.90
2019-02-06T01:49:52.841Z,3.90
2019-02-06T01:52:18.949Z,3.90
2019-02-06T01:54:45.093Z,3.90
2019-02-06T01:57:11.441Z,3.90
2019-02-06T01:59:37.573Z,3.80
2019-02-06T02:02:03.698Z,3.80
2019-02-06T02:04:29.856Z,3.80
2019-02-06T02:06:56.141Z,3.80
2019-02-06T02:09:24.959Z,3.80
2019-02-06T02:11:51.314Z,3.80
2019-02-06T02:14:17.445Z,3.80
2019-02-06T02:16:43.962Z,3.90
2019-02-06T02:19:10.190Z,3.80
2019-02-06T02:21:36.322Z,3.90
2019-02-06T02:24:02.454Z,3.90
2019-02-06T02:26:28.594Z,3.90
2019-02-06T02:28:54.753Z,3.90
2019-02-06T02:31:20.913Z,3.90
2019-02-06T02:33:56.191Z,4.00
2019-02-06T02:36:22.325Z,4.00
2019-02-06T02:38:51.410Z,4.00
2019-02-06T02:41:17.609Z,4.00
2019-02-06T02:43:43.757Z,4.00
2019-02-06T02:46:12.567Z,4.00
2019-02-06T02:48:38.696Z,4.00
2019-02-06T02:51:04.894Z,4.00
2019-02-06T02:53:31.343Z,4.00
2019-02-06T02:55:57.628Z,4.00
2019-02-06T02:58:23.832Z,4.00
2019-02-06T03:00:57.891Z,4.00
2019-02-06T03:03:43.774Z,4.00
2019-02-06T03:06:13.045Z,4.00
2019-02-06T03:08:57.886Z,4.00
2019-02-06T03:11:24.097Z,4.00
2019-02-06T03:13:50.315Z,4.00
2019-02-06T03:16:16.559Z,4.00
2019-02-06T03:18:42.843Z,4.00
2019-02-06T03:21:09.009Z,4.00
2019-02-06T03:23:35.138Z,4.10
2019-02-06T03:26:01.314Z,4.10
2019-02-06T03:28:30.234Z,4.10
2019-02-06T03:30:56.539Z,4.10
2019-02-06T03:33:25.396Z,4.10
2019-02-06T03:35:54.205Z,4.10
2019-02-06T03:38:20.718Z,4.10
2019-02-06T03:40:46.856Z,4.00
2019-02-06T03:43:12.986Z,4.10
2019-02-06T03:45:39.134Z,4.00
2019-02-06T03:48:05.366Z,4.00
2019-02-06T03:50:34.057Z,4.00
2019-02-06T03:53:18.748Z,4.00
2019-02-06T03:55:44.897Z,4.00
2019-02-06T03:58:11.022Z,4.00
2019-02-06T04:00:55.679Z,4.00
2019-02-06T04:03:21.891Z,4.00
2019-02-06T04:05:48.130Z,4.00
2019-02-06T04:08:14.666Z,4.00
2019-02-06T04:10:40.810Z,4.00
2019-02-06T04:13:06.938Z,4.00
2019-02-06T04:15:33.270Z,4.00
2019-02-06T04:17:59.404Z,4.00
2019-02-06T04:20:31.457Z,4.00
2019-02-06T04:23:14.665Z,4.00
2019-02-06T04:25:40.801Z,4.00
2019-02-06T04:28:06.943Z,3.90
2019-02-06T04:30:33.423Z,3.90
2019-02-06T04:33:02.314Z,3.90
2019-02-06T04:35:28.636Z,3.90
2019-02-06T04:37:54.862Z,3.90
2019-02-06T04:40:21.009Z,3.90
2019-02-06T04:42:47.653Z,3.90
2019-02-06T04:45:17.139Z,3.90
2019-02-06T04:47:43.479Z,3.90
2019-02-06T04:50:11.026Z,4.00
2019-02-06T04:52:40.245Z,3.90
2019-02-06T04:55:13.622Z,4.00
2019-02-06T04:57:39.974Z,4.00
2019-02-06T05:00:14.007Z,4.00
2019-02-06T05:02:40.163Z,3.90
2019-02-06T05:05:06.381Z,4.00
2019-02-06T05:07:35.080Z,3.90
2019-02-06T05:10:01.252Z,3.90
2019-02-06T05:12:27.396Z,4.00
2019-02-06T05:14:53.523Z,4.00
2019-02-06T05:17:19.977Z,4.00
2019-02-06T05:19:46.112Z,4.00
2019-02-06T05:22:14.950Z,4.00
2019-02-06T05:24:41.078Z,4.10
2019-02-06T05:27:07.234Z,4.10
2019-02-06T05:29:33.332Z,4.10
2019-02-06T05:32:11.753Z,4.10
2019-02-06T05:34:38.210Z,4.10
2019-02-06T05:37:04.378Z,4.10
2019-02-06T05:39:30.509Z,4.10
2019-02-06T05:41:56.768Z,4.10
2019-02-06T05:44:22.890Z,4.10
2019-02-06T05:46:49.041Z,4.10
2019-02-06T05:49:15.168Z,4.00
2019-02-06T05:51:41.313Z,4.00
2019-02-06T05:54:10.094Z,4.00
2019-02-06T05:56:36.550Z,4.00
2019-02-06T05:59:02.822Z,3.90
2019-02-06T06:01:29.014Z,3.90
2019-02-06T06:04:07.569Z,3.90
2019-02-06T06:06:51.790Z,3.90
2019-02-06T06:09:17.927Z,3.80
2019-02-06T06:11:53.306Z,3.90
2019-02-06T06:14:19.451Z,3.80
2019-02-06T06:16:45.756Z,3.80
2019-02-06T06:19:11.894Z,3.80
2019-02-06T06:21:56.303Z,3.80
2019-02-06T06:24:22.429Z,3.70
2019-02-06T06:26:48.574Z,3.80
2019-02-06T06:29:17.446Z,3.70
2019-02-06T06:31:43.682Z,3.70
2019-02-06T06:34:12.566Z,3.70
2019-02-06T06:36:41.335Z,3.70
2019-02-06T06:39:22.908Z,3.70
2019-02-06T06:41:58.364Z,3.70
2019-02-06T06:44:24.499Z,3.60
2019-02-06T06:46:53.415Z,3.60
2019-02-06T06:49:22.322Z,3.60
2019-02-06T06:51:48.501Z,3.60
2019-02-06T06:54:17.858Z,3.60
2019-02-06T06:56:44.021Z,3.60
2019-02-06T06:59:10.280Z,3.60
2019-02-06T07:01:51.686Z,3.60
2019-02-06T07:04:17.886Z,3.60
2019-02-06T07:06:46.691Z,3.50
2019-02-06T07:09:13.149Z,3.50
2019-02-06T07:11:57.769Z,3.60
2019-02-06T07:14:42.645Z,3.60
2019-02-06T07:17:11.393Z,3.60
2019-02-06T07:19:43.654Z,3.70
2019-02-06T07:22:09.788Z,3.70
2019-02-06T07:24:54.466Z,3.70
2019-02-06T07:27:23.262Z,3.70
2019-02-06T07:29:49.893Z,3.80
2019-02-06T07:32:16.053Z,3.80
2019-02-06T07:34:42.184Z,3.80
2019-02-06T07:37:11.448Z,3.80
2019-02-06T07:39:37.574Z,3.80
2019-02-06T07:42:22.000Z,3.80
2019-02-06T07:44:48.653Z,3.90
2019-02-06T07:47:14.814Z,3.90
2019-02-06T07:49:40.964Z,3.90
2019-02-06T07:52:07.113Z,4.00
2019-02-06T07:54:33.269Z,4.10
2019-02-06T07:56:59.389Z,4.20
2019-02-06T07:59:34.742Z,4.20
2019-02-06T08:02:03.542Z,4.20
2019-02-06T08:04:41.838Z,4.30
2019-02-06T08:07:23.170Z,4.30
2019-02-06T08:09:49.319Z,4.30
2019-02-06T08:12:15.466Z,4.40
2019-02-06T08:14:41.606Z,4.40
2019-02-06T08:17:08.142Z,4.40
2019-02-06T08:19:37.178Z,4.50
2019-02-06T08:22:03.731Z,4.50
2019-02-06T08:24:32.523Z,4.50
2019-02-06T08:26:58.766Z,4.50
2019-02-06T08:29:24.910Z,4.60
2019-02-06T08:31:51.041Z,4.60
2019-02-06T08:34:17.194Z,4.70
2019-02-06T08:36:43.316Z,4.80
2019-02-06T08:39:18.494Z,4.80
2019-02-06T08:41:59.738Z,4.90
2019-02-06T08:44:38.337Z,4.90
2019-02-06T08:47:04.487Z,5.00
2019-02-06T08:49:48.751Z,5.00
2019-02-06T08:52:17.503Z,5.00
2019-02-06T08:54:43.642Z,5.10
2019-02-06T08:57:09.989Z,5.10
2019-02-06T08:59:39.117Z,5.10
2019-02-06T09:02:05.373Z,5.20
2019-02-06T09:04:34.641Z,5.20
2019-02-06T09:07:16.006Z,5.20
2019-02-06T09:09:54.307Z,5.20
2019-02-06T09:12:23.631Z,5.20
2019-02-06T09:14:49.865Z,5.30
2019-02-06T09:17:16.041Z,5.30
2019-02-06T09:19:42.190Z,5.30
2019-02-06T09:22:08.319Z,5.30
2019-02-06T09:24:34.497Z,5.30
2019-02-06T09:27:01.642Z,5.30
2019-02-06T09:29:27.799Z,5.30
2019-02-06T09:31:54.343Z,5.20
2019-02-06T09:34:23.426Z,5.10
2019-02-06T09:36:49.571Z,5.10
2019-02-06T09:39:34.009Z,5.00
2019-02-06T09:42:00.177Z,5.00
2019-02-06T09:44:26.421Z,5.00
2019-02-06T09:46:52.865Z,5.00
2019-02-06T09:49:19.018Z,5.00
2019-02-06T09:51:45.258Z,5.10
2019-02-06T09:54:11.417Z,5.20
2019-02-06T09:56:37.574Z,5.20
2019-02-06T09:59:03.849Z,5.20
2019-02-06T10:01:29.998Z,5.20
2019-02-06T10:03:56.228Z,5.20
2019-02-06T10:06:25.007Z,5.20
2019-02-06T10:08:51.161Z,5.20
2019-02-06T10:11:20.279Z,5.20
2019-02-06T10:14:01.507Z,5.20
2019-02-06T10:16:27.626Z,5.20
2019-02-06T10:19:12.034Z,5.20
2019-02-06T10:21:40.851Z,5.20
2019-02-06T10:24:25.382Z,5.20
2019-02-06T10:26:51.622Z,5.20
2019-02-06T10:29:17.773Z,5.20
2019-02-06T10:31:46.666Z,5.20
2019-02-06T10:34:31.194Z,5.20
2019-02-06T10:36:59.989Z,5.20
2019-02-06T10:39:44.694Z,5.30
2019-02-06T10:42:11.121Z,5.30
2019-02-06T10:44:38.394Z,5.30
2019-02-06T10:47:04.657Z,5.30
2019-02-06T10:49:30.803Z,5.30
2019-02-06T10:51:57.046Z,5.30
2019-02-06T10:54:23.382Z,5.30
2019-02-06T10:56:49.509Z,5.30
2019-02-06T10:59:15.677Z,5.30
2019-02-06T11:01:42.416Z,5.30
2019-02-06T11:04:27.422Z,5.30
2019-02-06T11:06:53.581Z,5.20
2019-02-06T11:09:20.030Z,5.20
2019-02-06T11:11:49.128Z,5.20
2019-02-06T11:14:15.269Z,5.10
2019-02-06T11:16:41.806Z,5.10
2019-02-06T11:19:10.641Z,5.10
2019-02-06T11:21:36.814Z,5.10
2019-02-06T11:24:03.186Z,5.10
2019-02-06T11:26:29.322Z,5.20
2019-02-06T11:28:58.462Z,5.30
2019-02-06T11:31:24.622Z,5.30
2019-02-06T11:34:09.454Z,5.30
2019-02-06T11:36:35.597Z,5.30
2019-02-06T11:39:03.639Z,5.30
2019-02-06T11:41:42.076Z,5.20
2019-02-06T11:44:08.423Z,5.30
2019-02-06T11:46:35.102Z,5.30
2019-02-06T11:49:05.375Z,5.30
2019-02-06T11:51:34.699Z,5.20
2019-02-06T11:54:13.069Z,5.30
2019-02-06T11:56:42.000Z,5.30
2019-02-06T11:59:23.502Z,5.30
2019-02-06T12:01:49.647Z,5.30
2019-02-06T12:04:18.473Z,5.30
2019-02-06T12:06:47.233Z,5.30
2019-02-06T12:09:19.567Z,5.30
2019-02-06T12:11:45.721Z,5.30
2019-02-06T12:14:12.512Z,5.30
2019-02-06T12:16:38.712Z,5.30
2019-02-06T12:19:05.029Z,5.30
2019-02-06T12:21:31.156Z,5.30
2019-02-06T12:23:57.365Z,5.30
2019-02-06T12:26:23.518Z,5.20
2019-02-06T12:28:49.657Z,5.30
2019-02-06T12:31:15.887Z,5.30
2019-02-06T12:33:42.087Z,5.30
2019-02-06T12:36:27.004Z,5.30
2019-02-06T12:38:53.974Z,5.30
2019-02-06T12:41:35.418Z,5.30
2019-02-06T12:44:01.663Z,5.40
2019-02-06T12:46:27.989Z,5.40
2019-02-06T12:48:54.277Z,5.40
2019-02-06T12:51:20.621Z,5.50
2019-02-06T12:53:46.872Z,5.40
2019-02-06T12:56:13.052Z,5.40
2019-02-06T12:58:41.964Z,5.40
2019-02-06T13:01:08.179Z,5.40
2019-02-06T13:03:34.317Z,5.40
2019-02-06T13:06:03.565Z,5.50
2019-02-06T13:08:44.909Z,5.40
2019-02-06T13:11:13.641Z,5.50
2019-02-06T13:13:58.682Z,5.50
2019-02-06T13:16:24.929Z,5.50
2019-02-06T13:18:53.993Z,5.50
2019-02-06T13:21:20.238Z,5.50
2019-02-06T13:23:49.394Z,5.40
2019-02-06T13:26:14.559Z,5.40
2019-02-06T13:28:40.746Z,5.40
2019-02-06T13:31:07.119Z,5.50
2019-02-06T13:33:36.499Z,5.50
2019-02-06T13:36:07.845Z,5.50
2019-02-06T13:38:34.410Z,5.50
2019-02-06T13:41:00.554Z,5.50
2019-02-06T13:43:26.832Z,5.50
2019-02-06T13:45:53.210Z,5.60
2019-02-06T13:48:19.548Z,5.50
2019-02-06T13:50:45.888Z,5.50
2019-02-06T13:53:12.049Z,5.50
2019-02-06T13:55:38.336Z,5.50
2019-02-06T13:58:23.582Z,5.60
2019-02-06T14:00:52.276Z,5.60
2019-02-06T14:03:20.649Z,5.50
2019-02-06T14:05:47.119Z,5.50
2019-02-06T14:08:16.342Z,5.50
2019-02-06T14:11:01.775Z,5.50
2019-02-06T14:13:43.368Z,5.50
2019-02-06T14:16:12.618Z,5.50
2019-02-06T14:18:38.806Z,5.50
2019-02-06T14:21:05.808Z,5.50
2019-02-06T14:23:33.844Z,5.60
2019-02-06T14:26:20.189Z,5.60
2019-02-06T14:29:06.218Z,5.60
2019-02-06T14:31:53.077Z,5.60
2019-02-06T14:34:21.108Z,5.70
2019-02-06T14:36:49.343Z,5.70
2019-02-06T14:39:20.271Z,5.70
2019-02-06T14:41:54.333Z,5.70
2019-02-06T14:44:39.071Z,5.70
2019-02-06T14:47:16.222Z,5.70
2019-02-06T14:50:08.961Z,5.70
2019-02-06T14:52:37.073Z,5.70
2019-02-06T14:55:23.619Z,5.70
2019-02-06T14:57:52.868Z,5.70
2019-02-06T15:00:21.105Z,5.70
2019-02-06T15:02:55.035Z,5.70
2019-02-06T15:05:51.039Z,5.80
2019-02-06T15:08:22.273Z,5.70
2019-02-06T15:10:53.161Z,5.70
2019-02-06T15:13:45.739Z,5.70
2019-02-06T15:16:28.971Z,5.70
2019-02-06T15:18:59.549Z,5.70
2019-02-06T15:21:39.435Z,5.70
2019-02-06T15:24:10.779Z,5.70
2019-02-06T15:26:41.990Z,5.70
2019-02-06T15:29:44.959Z,5.70
2019-02-06T15:32:29.777Z,5.70
2019-02-06T15:35:03.601Z,5.70
2019-02-06T15:37:37.699Z,5.70
2019-02-06T15:40:27.057Z,5.70
2019-02-06T15:43:13.640Z,5.70
2019-02-06T15:46:00.376Z,5.70
2019-02-06T15:49:03.658Z,5.70
2019-02-06T15:52:14.910Z,5.70
2019-02-06T15:55:07.522Z,5.70
2019-02-06T15:58:11.687Z,5.70
2019-02-06T16:01:32.118Z,5.70
2019-02-06T16:04:31.984Z,5.70
2019-02-06T16:07:38.190Z,5.70
2019-02-06T16:10:30.824Z,5.70
2019-02-06T16:13:39.350Z,5.70
2019-02-06T16:16:39.340Z,5.70
2019-02-06T16:19:32.278Z,5.70
2019-02-06T16:22:30.426Z,5.70
2019-02-06T16:25:32.285Z,5.60
2019-02-06T16:28:49.690Z,5.70
2019-02-06T16:31:49.998Z,5.70
2019-02-06T16:34:42.469Z,5.70
2019-02-06T16:37:29.065Z,5.70
2019-02-06T16:40:32.262Z,5.70
2019-02-06T16:43:37.750Z,5.70
2019-02-06T16:46:39.740Z,5.70
2019-02-06T16:49:29.154Z,5.70
2019-02-06T16:52:33.718Z,5.70
2019-02-06T16:55:32.995Z,5.70
2019-02-06T16:58:28.894Z,5.70
2019-02-06T17:01:37.508Z,5.70
2019-02-06T17:04:40.284Z,5.70
2019-02-06T17:07:30.031Z,5.70
2019-02-06T17:10:01.139Z,5.70
2019-02-06T17:12:29.365Z,5.70
2019-02-06T17:15:21.881Z,5.70
2019-02-06T17:18:14.708Z,5.70
2019-02-06T17:21:10.855Z,5.80
2019-02-06T17:23:47.982Z,5.80
2019-02-06T17:26:19.141Z,5.80
2019-02-06T17:28:59.196Z,5.80
2019-02-06T17:31:30.323Z,5.80
2019-02-06T17:33:58.390Z,5.80
2019-02-06T17:36:47.749Z,5.90
2019-02-06T17:39:24.116Z,5.90
2019-02-06T17:42:15.098Z,5.90
2019-02-06T17:44:40.217Z,5.80
2019-02-06T17:47:29.341Z,5.80
2019-02-06T17:50:00.313Z,5.80
2019-02-06T17:52:59.733Z,5.80
2019-02-06T17:55:28.818Z,5.80
2019-02-06T17:57:55.086Z,5.80
2019-02-06T18:00:23.276Z,5.80
2019-02-06T18:03:10.152Z,5.80
2019-02-06T18:05:40.290Z,5.80
2019-02-06T18:08:06.868Z,5.80
2019-02-06T18:10:33.207Z,5.90
2019-02-06T18:13:11.874Z,5.90
2019-02-06T18:15:57.129Z,5.90
2019-02-06T18:18:51.839Z,5.90
2019-02-06T18:21:36.566Z,5.90
2019-02-06T18:24:40.294Z,5.90
2019-02-06T18:27:25.448Z,5.90
2019-02-06T18:30:15.121Z,5.90
2019-02-06T18:33:04.187Z,5.90
2019-02-06T18:35:49.002Z,6.00
2019-02-06T18:38:46.679Z,6.00
2019-02-06T18:41:36.281Z,6.00
2019-02-06T18:44:39.633Z,6.00
2019-02-06T18:47:24.518Z,5.90
2019-02-06T18:50:31.071Z,5.90
2019-02-06T18:53:16.005Z,5.90
2019-02-06T18:56:04.261Z,5.90
2019-02-06T18:59:07.474Z,5.90
2019-02-06T19:01:55.601Z,5.90
2019-02-06T19:04:56.265Z,5.90
2019-02-06T19:07:41.183Z,5.90
2019-02-06T19:10:45.266Z,5.90
2019-02-06T19:13:30.054Z,5.90
2019-02-06T19:16:15.071Z,6.00
2019-02-06T19:19:25.595Z,6.00
2019-02-06T19:22:06.103Z,6.00
2019-02-06T19:24:50.868Z,6.00
2019-02-06T19:27:56.312Z,6.00
2019-02-06T19:30:43.129Z,6.00
2019-02-06T19:33:31.056Z,6.00
2019-02-06T19:36:15.808Z,6.00
2019-02-06T19:39:01.446Z,6.00
2019-02-06T19:41:49.233Z,6.00
2019-02-06T19:44:49.606Z,6.00
2019-02-06T19:47:53.731Z,6.00
2019-02-06T19:50:42.440Z,6.00
2019-02-06T19:53:27.642Z,6.10
2019-02-06T19:56:12.876Z,6.10
2019-02-06T19:58:57.623Z,6.10
2019-02-06T20:01:57.970Z,6.10
2019-02-06T20:05:02.621Z,6.20
2019-02-06T20:07:47.792Z,6.20
2019-02-06T20:10:40.378Z,6.20
2019-02-06T20:13:25.161Z,6.20
2019-02-06T20:15:52.101Z,6.20
2019-02-06T20:18:18.550Z,6.20
2019-02-06T20:20:44.800Z,6.20
2019-02-06T20:23:26.371Z,6.30
2019-02-06T20:25:52.739Z,6.30
2019-02-06T20:28:18.990Z,6.30
2019-02-06T20:30:47.961Z,6.30
2019-02-06T20:33:17.423Z,6.30
2019-02-06T20:36:02.390Z,6.30
2019-02-06T20:38:28.959Z,6.30
2019-02-06T20:40:57.883Z,6.30
2019-02-06T20:43:24.075Z,6.30
2019-02-06T20:45:53.094Z,6.30
2019-02-06T20:48:22.366Z,6.30
2019-02-06T20:51:07.763Z,6.30
2019-02-06T20:53:33.933Z,6.30
2019-02-06T20:56:09.397Z,6.30
2019-02-06T20:58:54.585Z,6.30
2019-02-06T21:01:20.930Z,6.30
2019-02-06T21:04:05.882Z,6.30
2019-02-06T21:06:32.296Z,6.30
2019-02-06T21:09:01.048Z,6.40
2019-02-06T21:11:46.357Z,6.40
2019-02-06T21:14:12.623Z,6.40
2019-02-06T21:16:58.565Z,6.40
2019-02-06T21:19:24.701Z,6.40
2019-02-06T21:22:09.821Z,6.40
2019-02-06T21:24:38.630Z,6.40
2019-02-06T21:27:04.799Z,6.40
2019-02-06T21:29:31.044Z,6.40
2019-02-06T21:31:57.300Z,6.40
2019-02-06T21:34:23.630Z,6.40
2019-02-06T21:36:52.559Z,6.30
2019-02-06T21:39:18.830Z,6.40
2019-02-06T21:41:45.188Z,6.40
2019-02-06T21:44:26.850Z,6.40
2019-02-06T21:46:53.202Z,6.40
2019-02-06T21:49:32.220Z,6.40
2019-02-06T21:52:01.480Z,6.40
2019-02-06T21:54:27.925Z,6.30
2019-02-06T21:57:03.483Z,6.30
2019-02-06T21:59:32.249Z,6.30
2019-02-06T22:01:58.442Z,6.30
2019-02-06T22:04:27.463Z,6.30
2019-02-06T22:06:53.805Z,6.30
2019-02-06T22:09:19.953Z,6.30
2019-02-06T22:11:46.155Z,6.30
2019-02-06T22:14:30.841Z,6.30
2019-02-06T22:17:00.611Z,6.30
2019-02-06T22:19:42.293Z,6.30
2019-02-06T22:22:11.198Z,6.30
2019-02-06T22:24:40.175Z,6.30
2019-02-06T22:27:06.391Z,6.30
2019-02-06T22:29:51.740Z,6.30
2019-02-06T22:32:17.904Z,6.30
2019-02-06T22:35:04.361Z,6.30
2019-02-06T22:37:30.745Z,6.30
2019-02-06T22:39:57.302Z,6.20
2019-02-06T22:42:26.331Z,6.20
2019-02-06T22:44:55.606Z,6.20
2019-02-06T22:47:21.901Z,6.20
2019-02-06T22:49:48.093Z,6.20
2019-02-06T22:52:17.006Z,6.20
2019-02-06T22:54:46.088Z,6.20
2019-02-06T22:57:12.437Z,6.30
2019-02-06T22:59:41.202Z,6.30
2019-02-06T23:02:10.179Z,6.30
2019-02-06T23:04:39.099Z,6.30
2019-02-06T23:07:07.176Z,6.30
2019-02-06T23:09:33.299Z,6.20
2019-02-06T23:11:59.549Z,6.30
2019-02-06T23:14:26.005Z,6.30
2019-02-06T23:16:52.186Z,6.30
2019-02-06T23:19:18.351Z,6.20
2019-02-06T23:21:56.885Z,6.20
2019-02-06T23:24:25.671Z,6.20
2019-02-06T23:27:21.374Z,6.20
2019-02-06T23:29:47.426Z,6.20
2019-02-06T23:32:13.588Z,6.20
2019-02-06T23:34:42.412Z,6.20
2019-02-06T23:37:11.327Z,6.20
2019-02-06T23:39:36.444Z,6.20
2019-02-06T23:42:05.204Z,6.20
2019-02-06T23:44:31.286Z,6.20
2019-02-06T23:46:57.332Z,6.20
2019-02-06T23:49:23.367Z,6.20
2019-02-06T23:51:55.675Z,6.20
2019-02-06T23:54:21.907Z,6.20
2019-02-06T23:56:48.447Z,6.20
2019-02-06T23:59:14.602Z,6.20
